sensor_id;sensor_type;location;lat;lon;timestamp;P1;durP1;ratioP1;P2;durP2;ratioP2
10096;SDS011;5087;42.662;23.466;2023-03-31T00:01:08;4.70;;;4.60;;
10096;SDS011;5087;42.662;23.466;2023-03-31T00:03:35;4.27;;;4.17;;
10096;SDS011;5087;42.662;23.466;2023-03-31T00:06:10;4.33;;;4.23;;
10096;SDS011;5087;42.662;23.466;2023-03-31T00:08:42;4.40;;;4.30;;
10096;SDS011;5087;42.662;23.466;2023-03-31T00:11:09;4.60;;;4.50;;
10096;SDS011;5087;42.662;23.466;2023-03-31T00:13:37;4.30;;;4.20;;
10096;SDS011;5087;42.662;23.466;2023-03-31T00:16:06;4.50;;;4.40;;
10096;SDS011;5087;42.662;23.466;2023-03-31T00:18:35;5.10;;;5.00;;
10096;SDS011;5087;42.662;23.466;2023-03-31T00:21:13;4.70;;;4.60;;
10096;SDS011;5087;42.662;23.466;2023-03-31T00:23:49;4.80;;;4.70;;
10096;SDS011;5087;42.662;23.466;2023-03-31T00:26:16;4.60;;;4.50;;
10096;SDS011;5087;42.662;23.466;2023-03-31T00:28:44;5.13;;;5.03;;
10096;SDS011;5087;42.662;23.466;2023-03-31T00:31:11;4.70;;;4.60;;
10096;SDS011;5087;42.662;23.466;2023-03-31T00:33:38;4.97;;;4.87;;
10096;SDS011;5087;42.662;23.466;2023-03-31T00:36:05;5.00;;;4.90;;
10096;SDS011;5087;42.662;23.466;2023-03-31T00:38:34;4.77;;;4.67;;
10096;SDS011;5087;42.662;23.466;2023-03-31T00:41:02;6.23;;;6.03;;
10096;SDS011;5087;42.662;23.466;2023-03-31T00:43:31;5.00;;;4.90;;
10096;SDS011;5087;42.662;23.466;2023-03-31T00:46:04;5.00;;;4.90;;
10096;SDS011;5087;42.662;23.466;2023-03-31T00:48:40;4.80;;;4.70;;
10096;SDS011;5087;42.662;23.466;2023-03-31T00:51:12;4.80;;;4.70;;
10096;SDS011;5087;42.662;23.466;2023-03-31T00:53:41;4.30;;;4.20;;
10096;SDS011;5087;42.662;23.466;2023-03-31T00:56:10;4.20;;;4.10;;
10096;SDS011;5087;42.662;23.466;2023-03-31T00:58:40;3.73;;;3.73;;
10096;SDS011;5087;42.662;23.466;2023-03-31T01:01:13;4.27;;;4.17;;
10096;SDS011;5087;42.662;23.466;2023-03-31T01:03:44;3.60;;;3.60;;
10096;SDS011;5087;42.662;23.466;2023-03-31T01:06:13;4.10;;;4.00;;
10096;SDS011;5087;42.662;23.466;2023-03-31T01:08:46;3.57;;;3.57;;
10096;SDS011;5087;42.662;23.466;2023-03-31T01:11:16;4.30;;;4.20;;
10096;SDS011;5087;42.662;23.466;2023-03-31T01:13:46;3.90;;;3.90;;
10096;SDS011;5087;42.662;23.466;2023-03-31T01:16:16;4.00;;;3.90;;
10096;SDS011;5087;42.662;23.466;2023-03-31T01:18:44;3.63;;;3.63;;
10096;SDS011;5087;42.662;23.466;2023-03-31T01:27:46;3.80;;;3.80;;
10096;SDS011;5087;42.662;23.466;2023-03-31T01:36:57;3.70;;;3.70;;
10096;SDS011;5087;42.662;23.466;2023-03-31T01:39:50;3.40;;;3.40;;
10096;SDS011;5087;42.662;23.466;2023-03-31T01:42:38;3.40;;;3.40;;
10096;SDS011;5087;42.662;23.466;2023-03-31T01:45:18;3.30;;;3.30;;
10096;SDS011;5087;42.662;23.466;2023-03-31T01:47:54;3.37;;;3.37;;
10096;SDS011;5087;42.662;23.466;2023-03-31T01:50:25;3.50;;;3.50;;
10096;SDS011;5087;42.662;23.466;2023-03-31T01:53:00;3.80;;;3.80;;
10096;SDS011;5087;42.662;23.466;2023-03-31T01:55:34;3.70;;;3.70;;
10096;SDS011;5087;42.662;23.466;2023-03-31T01:58:04;3.50;;;3.50;;
10096;SDS011;5087;42.662;23.466;2023-03-31T02:00:39;3.70;;;3.70;;
10096;SDS011;5087;42.662;23.466;2023-03-31T02:03:13;3.47;;;3.47;;
10096;SDS011;5087;42.662;23.466;2023-03-31T02:05:44;3.60;;;3.60;;
10096;SDS011;5087;42.662;23.466;2023-03-31T02:08:19;4.37;;;4.27;;
10096;SDS011;5087;42.662;23.466;2023-03-31T02:10:50;3.60;;;3.60;;
10096;SDS011;5087;42.662;23.466;2023-03-31T02:13:19;4.07;;;3.97;;
10096;SDS011;5087;42.662;23.466;2023-03-31T02:15:49;4.10;;;4.00;;
10096;SDS011;5087;42.662;23.466;2023-03-31T02:18:22;4.63;;;4.53;;
10096;SDS011;5087;42.662;23.466;2023-03-31T02:20:55;5.93;;;5.73;;
10096;SDS011;5087;42.662;23.466;2023-03-31T02:23:26;4.50;;;4.40;;
10096;SDS011;5087;42.662;23.466;2023-03-31T02:25:58;4.30;;;4.20;;
10096;SDS011;5087;42.662;23.466;2023-03-31T02:28:29;4.83;;;4.73;;
10096;SDS011;5087;42.662;23.466;2023-03-31T02:31:01;4.23;;;4.17;;
10096;SDS011;5087;42.662;23.466;2023-03-31T02:33:34;3.70;;;3.70;;
10096;SDS011;5087;42.662;23.466;2023-03-31T02:36:03;4.20;;;4.10;;
10096;SDS011;5087;42.662;23.466;2023-03-31T02:38:32;4.20;;;4.10;;
10096;SDS011;5087;42.662;23.466;2023-03-31T02:41:05;5.73;;;5.33;;
10096;SDS011;5087;42.662;23.466;2023-03-31T02:43:33;4.20;;;4.10;;
10096;SDS011;5087;42.662;23.466;2023-03-31T02:46:00;3.77;;;3.77;;
10096;SDS011;5087;42.662;23.466;2023-03-31T02:48:30;3.63;;;3.63;;
10096;SDS011;5087;42.662;23.466;2023-03-31T02:51:03;3.30;;;3.30;;
10096;SDS011;5087;42.662;23.466;2023-03-31T02:53:52;3.57;;;3.57;;
10096;SDS011;5087;42.662;23.466;2023-03-31T02:56:57;2.70;;;2.70;;
10096;SDS011;5087;42.662;23.466;2023-03-31T02:59:40;2.73;;;2.73;;
10096;SDS011;5087;42.662;23.466;2023-03-31T03:02:17;2.40;;;2.40;;
10096;SDS011;5087;42.662;23.466;2023-03-31T03:04:59;2.30;;;2.30;;
10096;SDS011;5087;42.662;23.466;2023-03-31T03:07:45;2.40;;;2.40;;
10096;SDS011;5087;42.662;23.466;2023-03-31T03:10:20;1.80;;;1.80;;
10096;SDS011;5087;42.662;23.466;2023-03-31T03:12:59;1.80;;;1.80;;
10096;SDS011;5087;42.662;23.466;2023-03-31T03:15:37;1.97;;;1.97;;
10096;SDS011;5087;42.662;23.466;2023-03-31T03:18:10;1.60;;;1.60;;
10096;SDS011;5087;42.662;23.466;2023-03-31T03:20:38;1.80;;;1.80;;
10096;SDS011;5087;42.662;23.466;2023-03-31T03:23:12;2.00;;;2.00;;
10096;SDS011;5087;42.662;23.466;2023-03-31T03:25:40;2.30;;;2.30;;
10096;SDS011;5087;42.662;23.466;2023-03-31T03:28:08;5.60;;;5.40;;
10096;SDS011;5087;42.662;23.466;2023-03-31T03:30:36;2.73;;;2.73;;
10096;SDS011;5087;42.662;23.466;2023-03-31T03:33:04;2.50;;;2.50;;
10096;SDS011;5087;42.662;23.466;2023-03-31T03:35:31;2.30;;;2.30;;
10096;SDS011;5087;42.662;23.466;2023-03-31T03:38:00;1.90;;;1.90;;
10096;SDS011;5087;42.662;23.466;2023-03-31T03:40:27;2.53;;;2.53;;
10096;SDS011;5087;42.662;23.466;2023-03-31T03:42:54;1.47;;;1.47;;
10096;SDS011;5087;42.662;23.466;2023-03-31T03:45:23;2.47;;;2.47;;
10096;SDS011;5087;42.662;23.466;2023-03-31T03:47:50;1.43;;;1.43;;
10096;SDS011;5087;42.662;23.466;2023-03-31T03:50:17;1.53;;;1.53;;
10096;SDS011;5087;42.662;23.466;2023-03-31T03:52:44;3.00;;;2.90;;
10096;SDS011;5087;42.662;23.466;2023-03-31T03:55:12;2.03;;;1.97;;
10096;SDS011;5087;42.662;23.466;2023-03-31T03:57:40;1.30;;;1.30;;
10096;SDS011;5087;42.662;23.466;2023-03-31T04:00:07;1.40;;;1.40;;
10096;SDS011;5087;42.662;23.466;2023-03-31T04:02:38;1.70;;;1.70;;
10096;SDS011;5087;42.662;23.466;2023-03-31T04:05:05;1.70;;;1.70;;
10096;SDS011;5087;42.662;23.466;2023-03-31T04:07:33;1.90;;;1.90;;
10096;SDS011;5087;42.662;23.466;2023-03-31T04:10:00;2.50;;;2.50;;
10096;SDS011;5087;42.662;23.466;2023-03-31T04:12:27;2.10;;;2.10;;
10096;SDS011;5087;42.662;23.466;2023-03-31T04:14:57;2.40;;;2.40;;
10096;SDS011;5087;42.662;23.466;2023-03-31T04:17:24;2.60;;;2.60;;
10096;SDS011;5087;42.662;23.466;2023-03-31T04:20:01;3.10;;;3.10;;
10096;SDS011;5087;42.662;23.466;2023-03-31T04:22:33;2.63;;;2.63;;
10096;SDS011;5087;42.662;23.466;2023-03-31T04:25:05;2.70;;;2.67;;
10096;SDS011;5087;42.662;23.466;2023-03-31T04:27:41;1.77;;;1.77;;
10096;SDS011;5087;42.662;23.466;2023-03-31T04:30:11;1.50;;;1.50;;
10096;SDS011;5087;42.662;23.466;2023-03-31T04:32:47;0.80;;;0.80;;
10096;SDS011;5087;42.662;23.466;2023-03-31T04:35:17;0.50;;;0.50;;
10096;SDS011;5087;42.662;23.466;2023-03-31T04:37:45;0.30;;;0.30;;
10096;SDS011;5087;42.662;23.466;2023-03-31T04:40:13;1.83;;;1.83;;
10096;SDS011;5087;42.662;23.466;2023-03-31T04:42:40;0.23;;;0.23;;
10096;SDS011;5087;42.662;23.466;2023-03-31T04:45:09;0.10;;;0.10;;
10096;SDS011;5087;42.662;23.466;2023-03-31T04:47:38;0.20;;;0.20;;
10096;SDS011;5087;42.662;23.466;2023-03-31T04:50:08;0.20;;;0.20;;
10096;SDS011;5087;42.662;23.466;2023-03-31T04:52:41;0.10;;;0.10;;
10096;SDS011;5087;42.662;23.466;2023-03-31T04:55:09;0.30;;;0.30;;
10096;SDS011;5087;42.662;23.466;2023-03-31T04:57:44;0.20;;;0.20;;
10096;SDS011;5087;42.662;23.466;2023-03-31T05:00:11;0.20;;;0.20;;
10096;SDS011;5087;42.662;23.466;2023-03-31T05:02:40;0.20;;;0.20;;
10096;SDS011;5087;42.662;23.466;2023-03-31T05:05:07;0.30;;;0.30;;
10096;SDS011;5087;42.662;23.466;2023-03-31T05:07:37;0.40;;;0.40;;
10096;SDS011;5087;42.662;23.466;2023-03-31T05:10:05;0.40;;;0.40;;
10096;SDS011;5087;42.662;23.466;2023-03-31T05:12:33;0.50;;;0.50;;
10096;SDS011;5087;42.662;23.466;2023-03-31T05:15:00;0.60;;;0.60;;
10096;SDS011;5087;42.662;23.466;2023-03-31T05:17:29;0.60;;;0.60;;
10096;SDS011;5087;42.662;23.466;2023-03-31T05:19:58;0.70;;;0.70;;
10096;SDS011;5087;42.662;23.466;2023-03-31T05:22:26;1.20;;;1.20;;
10096;SDS011;5087;42.662;23.466;2023-03-31T05:24:55;6.07;;;1.93;;
10096;SDS011;5087;42.662;23.466;2023-03-31T05:27:22;15.33;;;3.23;;
10096;SDS011;5087;42.662;23.466;2023-03-31T05:29:54;0.40;;;0.40;;
10096;SDS011;5087;42.662;23.466;2023-03-31T05:32:21;0.20;;;0.20;;
10096;SDS011;5087;42.662;23.466;2023-03-31T05:34:50;0.20;;;0.20;;
10096;SDS011;5087;42.662;23.466;2023-03-31T05:37:22;0.10;;;0.10;;
10096;SDS011;5087;42.662;23.466;2023-03-31T05:39:50;0.07;;;0.07;;
10096;SDS011;5087;42.662;23.466;2023-03-31T05:42:19;0.10;;;0.10;;
10096;SDS011;5087;42.662;23.466;2023-03-31T05:44:49;0.00;;;0.00;;
10096;SDS011;5087;42.662;23.466;2023-03-31T05:47:17;0.20;;;0.20;;
10096;SDS011;5087;42.662;23.466;2023-03-31T05:49:47;0.10;;;0.10;;
10096;SDS011;5087;42.662;23.466;2023-03-31T05:52:14;0.10;;;0.10;;
10096;SDS011;5087;42.662;23.466;2023-03-31T05:54:53;0.10;;;0.10;;
10096;SDS011;5087;42.662;23.466;2023-03-31T05:57:56;0.10;;;0.10;;
10096;SDS011;5087;42.662;23.466;2023-03-31T06:00:31;0.20;;;0.20;;
10096;SDS011;5087;42.662;23.466;2023-03-31T06:03:01;0.20;;;0.20;;
10096;SDS011;5087;42.662;23.466;2023-03-31T06:05:28;0.30;;;0.30;;
10096;SDS011;5087;42.662;23.466;2023-03-31T06:07:56;0.60;;;0.60;;
10096;SDS011;5087;42.662;23.466;2023-03-31T06:10:24;0.57;;;0.57;;
10096;SDS011;5087;42.662;23.466;2023-03-31T06:12:51;0.90;;;0.90;;
10096;SDS011;5087;42.662;23.466;2023-03-31T06:15:32;1.03;;;1.03;;
10096;SDS011;5087;42.662;23.466;2023-03-31T06:18:00;1.40;;;1.40;;
10096;SDS011;5087;42.662;23.466;2023-03-31T06:20:27;1.80;;;1.80;;
10096;SDS011;5087;42.662;23.466;2023-03-31T06:25:48;2.50;;;2.50;;
10096;SDS011;5087;42.662;23.466;2023-03-31T06:28:47;3.13;;;3.13;;
10096;SDS011;5087;42.662;23.466;2023-03-31T06:31:17;3.40;;;3.40;;
10096;SDS011;5087;42.662;23.466;2023-03-31T06:33:59;3.50;;;3.50;;
10096;SDS011;5087;42.662;23.466;2023-03-31T06:36:26;3.60;;;3.60;;
10096;SDS011;5087;42.662;23.466;2023-03-31T06:39:22;3.20;;;3.20;;
10096;SDS011;5087;42.662;23.466;2023-03-31T06:41:56;3.40;;;3.40;;
10096;SDS011;5087;42.662;23.466;2023-03-31T06:44:26;4.43;;;4.23;;
10096;SDS011;5087;42.662;23.466;2023-03-31T06:47:08;3.40;;;3.40;;
10096;SDS011;5087;42.662;23.466;2023-03-31T06:49:39;3.40;;;3.40;;
10096;SDS011;5087;42.662;23.466;2023-03-31T06:52:29;4.00;;;3.90;;
10096;SDS011;5087;42.662;23.466;2023-03-31T06:54:57;4.13;;;4.03;;
10096;SDS011;5087;42.662;23.466;2023-03-31T06:57:25;5.37;;;5.20;;
10096;SDS011;5087;42.662;23.466;2023-03-31T06:59:55;4.70;;;4.60;;
10096;SDS011;5087;42.662;23.466;2023-03-31T07:02:47;4.90;;;4.80;;
10096;SDS011;5087;42.662;23.466;2023-03-31T07:06:01;5.20;;;5.10;;
10096;SDS011;5087;42.662;23.466;2023-03-31T07:08:34;5.60;;;5.50;;
10096;SDS011;5087;42.662;23.466;2023-03-31T07:11:02;5.90;;;5.80;;
10096;SDS011;5087;42.662;23.466;2023-03-31T07:13:29;6.37;;;6.27;;
10096;SDS011;5087;42.662;23.466;2023-03-31T07:15:57;5.40;;;5.30;;
10096;SDS011;5087;42.662;23.466;2023-03-31T07:18:37;5.80;;;5.70;;
10096;SDS011;5087;42.662;23.466;2023-03-31T07:21:19;5.30;;;5.20;;
10096;SDS011;5087;42.662;23.466;2023-03-31T07:23:53;5.00;;;4.90;;
10096;SDS011;5087;42.662;23.466;2023-03-31T07:26:30;4.80;;;4.70;;
10096;SDS011;5087;42.662;23.466;2023-03-31T07:29:25;5.30;;;5.20;;
10096;SDS011;5087;42.662;23.466;2023-03-31T07:32:03;5.50;;;5.40;;
10096;SDS011;5087;42.662;23.466;2023-03-31T07:34:35;5.40;;;5.30;;
10096;SDS011;5087;42.662;23.466;2023-03-31T07:37:15;5.73;;;5.63;;
10096;SDS011;5087;42.662;23.466;2023-03-31T07:39:52;6.37;;;6.27;;
10096;SDS011;5087;42.662;23.466;2023-03-31T07:42:19;6.40;;;6.30;;
10096;SDS011;5087;42.662;23.466;2023-03-31T07:44:57;6.20;;;6.10;;
10096;SDS011;5087;42.662;23.466;2023-03-31T07:47:24;6.40;;;6.30;;
10096;SDS011;5087;42.662;23.466;2023-03-31T07:50:06;6.07;;;5.97;;
10096;SDS011;5087;42.662;23.466;2023-03-31T07:52:35;6.10;;;6.00;;
10096;SDS011;5087;42.662;23.466;2023-03-31T07:55:10;6.83;;;6.63;;
10096;SDS011;5087;42.662;23.466;2023-03-31T07:57:46;5.30;;;5.20;;
10096;SDS011;5087;42.662;23.466;2023-03-31T08:00:31;5.50;;;5.40;;
10096;SDS011;5087;42.662;23.466;2023-03-31T08:03:02;5.57;;;5.47;;
10096;SDS011;5087;42.662;23.466;2023-03-31T08:05:34;5.60;;;5.50;;
10096;SDS011;5087;42.662;23.466;2023-03-31T08:08:10;5.50;;;5.40;;
10096;SDS011;5087;42.662;23.466;2023-03-31T08:10:37;5.33;;;5.23;;
10096;SDS011;5087;42.662;23.466;2023-03-31T08:13:08;5.00;;;4.90;;
10096;SDS011;5087;42.662;23.466;2023-03-31T08:15:56;5.30;;;5.20;;
10096;SDS011;5087;42.662;23.466;2023-03-31T08:18:23;5.30;;;5.20;;
10096;SDS011;5087;42.662;23.466;2023-03-31T08:20:55;5.80;;;5.70;;
10096;SDS011;5087;42.662;23.466;2023-03-31T08:23:23;5.87;;;5.77;;
10096;SDS011;5087;42.662;23.466;2023-03-31T08:25:50;6.10;;;6.00;;
10096;SDS011;5087;42.662;23.466;2023-03-31T08:28:17;6.00;;;5.90;;
10096;SDS011;5087;42.662;23.466;2023-03-31T08:30:45;5.63;;;5.53;;
10096;SDS011;5087;42.662;23.466;2023-03-31T08:33:12;4.80;;;4.70;;
10096;SDS011;5087;42.662;23.466;2023-03-31T08:35:40;4.50;;;4.40;;
10096;SDS011;5087;42.662;23.466;2023-03-31T08:38:11;3.30;;;3.30;;
10096;SDS011;5087;42.662;23.466;2023-03-31T08:40:39;2.60;;;2.60;;
10096;SDS011;5087;42.662;23.466;2023-03-31T08:43:10;3.00;;;3.00;;
10096;SDS011;5087;42.662;23.466;2023-03-31T08:45:43;2.70;;;2.70;;
10096;SDS011;5087;42.662;23.466;2023-03-31T08:48:16;2.40;;;2.40;;
10096;SDS011;5087;42.662;23.466;2023-03-31T08:50:55;2.70;;;2.70;;
10096;SDS011;5087;42.662;23.466;2023-03-31T08:53:28;2.33;;;2.33;;
10096;SDS011;5087;42.662;23.466;2023-03-31T08:55:59;2.10;;;2.10;;
10096;SDS011;5087;42.662;23.466;2023-03-31T08:58:32;2.00;;;2.00;;
10096;SDS011;5087;42.662;23.466;2023-03-31T09:01:06;1.70;;;1.70;;
10096;SDS011;5087;42.662;23.466;2023-03-31T09:03:45;1.70;;;1.70;;
10096;SDS011;5087;42.662;23.466;2023-03-31T09:06:31;2.00;;;2.00;;
10096;SDS011;5087;42.662;23.466;2023-03-31T09:09:05;1.60;;;1.60;;
10096;SDS011;5087;42.662;23.466;2023-03-31T09:11:37;1.70;;;1.70;;
10096;SDS011;5087;42.662;23.466;2023-03-31T09:14:15;1.90;;;1.90;;
10096;SDS011;5087;42.662;23.466;2023-03-31T09:16:52;1.73;;;1.73;;
10096;SDS011;5087;42.662;23.466;2023-03-31T09:19:33;1.70;;;1.70;;
10096;SDS011;5087;42.662;23.466;2023-03-31T09:22:08;1.63;;;1.63;;
10096;SDS011;5087;42.662;23.466;2023-03-31T09:24:45;1.77;;;1.77;;
10096;SDS011;5087;42.662;23.466;2023-03-31T09:27:16;1.80;;;1.80;;
10096;SDS011;5087;42.662;23.466;2023-03-31T09:29:47;1.70;;;1.70;;
10096;SDS011;5087;42.662;23.466;2023-03-31T09:32:19;1.60;;;1.60;;
10096;SDS011;5087;42.662;23.466;2023-03-31T09:34:49;1.70;;;1.70;;
10096;SDS011;5087;42.662;23.466;2023-03-31T09:37:23;2.57;;;2.57;;
10096;SDS011;5087;42.662;23.466;2023-03-31T09:39:54;3.60;;;2.53;;
10096;SDS011;5087;42.662;23.466;2023-03-31T09:42:22;1.80;;;1.80;;
10096;SDS011;5087;42.662;23.466;2023-03-31T09:44:50;1.70;;;1.70;;
10096;SDS011;5087;42.662;23.466;2023-03-31T09:47:20;1.80;;;1.80;;
10096;SDS011;5087;42.662;23.466;2023-03-31T09:49:54;1.90;;;1.90;;
10096;SDS011;5087;42.662;23.466;2023-03-31T09:52:25;1.60;;;1.60;;
10096;SDS011;5087;42.662;23.466;2023-03-31T09:55:03;2.37;;;2.27;;
10096;SDS011;5087;42.662;23.466;2023-03-31T09:57:41;1.60;;;1.60;;
10096;SDS011;5087;42.662;23.466;2023-03-31T10:00:13;1.60;;;1.60;;
10096;SDS011;5087;42.662;23.466;2023-03-31T10:02:43;1.70;;;1.70;;
10096;SDS011;5087;42.662;23.466;2023-03-31T10:05:21;1.50;;;1.50;;
10096;SDS011;5087;42.662;23.466;2023-03-31T10:08:09;1.70;;;1.70;;
10096;SDS011;5087;42.662;23.466;2023-03-31T10:10:48;1.70;;;1.70;;
10096;SDS011;5087;42.662;23.466;2023-03-31T10:13:18;1.63;;;1.63;;
10096;SDS011;5087;42.662;23.466;2023-03-31T10:16:01;1.70;;;1.70;;
10096;SDS011;5087;42.662;23.466;2023-03-31T10:18:34;1.77;;;1.77;;
10096;SDS011;5087;42.662;23.466;2023-03-31T10:21:06;1.83;;;1.83;;
10096;SDS011;5087;42.662;23.466;2023-03-31T10:23:45;1.77;;;1.77;;
10096;SDS011;5087;42.662;23.466;2023-03-31T10:26:16;1.60;;;1.60;;
10096;SDS011;5087;42.662;23.466;2023-03-31T10:28:46;1.60;;;1.60;;
10096;SDS011;5087;42.662;23.466;2023-03-31T10:31:17;1.70;;;1.70;;
10096;SDS011;5087;42.662;23.466;2023-03-31T10:33:45;2.87;;;2.67;;
10096;SDS011;5087;42.662;23.466;2023-03-31T10:36:18;1.70;;;1.70;;
10096;SDS011;5087;42.662;23.466;2023-03-31T10:38:48;1.60;;;1.60;;
10096;SDS011;5087;42.662;23.466;2023-03-31T10:41:19;1.60;;;1.60;;
10096;SDS011;5087;42.662;23.466;2023-03-31T10:43:49;1.60;;;1.60;;
10096;SDS011;5087;42.662;23.466;2023-03-31T10:46:18;1.50;;;1.50;;
10096;SDS011;5087;42.662;23.466;2023-03-31T10:48:49;1.40;;;1.40;;
10096;SDS011;5087;42.662;23.466;2023-03-31T10:51:51;1.40;;;1.40;;
10096;SDS011;5087;42.662;23.466;2023-03-31T10:54:19;1.60;;;1.60;;
10096;SDS011;5087;42.662;23.466;2023-03-31T11:00:25;1.40;;;1.40;;
10096;SDS011;5087;42.662;23.466;2023-03-31T11:06:09;1.40;;;1.40;;
10096;SDS011;5087;42.662;23.466;2023-03-31T11:08:59;1.60;;;1.60;;
10096;SDS011;5087;42.662;23.466;2023-03-31T11:11:52;1.60;;;1.60;;
10096;SDS011;5087;42.662;23.466;2023-03-31T11:14:31;1.50;;;1.50;;
10096;SDS011;5087;42.662;23.466;2023-03-31T11:17:08;1.50;;;1.50;;
10096;SDS011;5087;42.662;23.466;2023-03-31T11:19:52;1.50;;;1.50;;
10096;SDS011;5087;42.662;23.466;2023-03-31T11:22:33;1.73;;;1.73;;
10096;SDS011;5087;42.662;23.466;2023-03-31T11:25:16;1.60;;;1.60;;
10096;SDS011;5087;42.662;23.466;2023-03-31T11:27:52;1.60;;;1.60;;
10096;SDS011;5087;42.662;23.466;2023-03-31T11:30:29;1.80;;;1.80;;
10096;SDS011;5087;42.662;23.466;2023-03-31T11:33:14;1.53;;;1.53;;
10096;SDS011;5087;42.662;23.466;2023-03-31T11:36:02;1.50;;;1.50;;
10096;SDS011;5087;42.662;23.466;2023-03-31T11:38:45;1.60;;;1.60;;
10096;SDS011;5087;42.662;23.466;2023-03-31T11:41:46;1.40;;;1.40;;
10096;SDS011;5087;42.662;23.466;2023-03-31T11:44:17;1.50;;;1.50;;
10096;SDS011;5087;42.662;23.466;2023-03-31T11:46:47;1.50;;;1.50;;
10096;SDS011;5087;42.662;23.466;2023-03-31T11:49:19;1.60;;;1.60;;
10096;SDS011;5087;42.662;23.466;2023-03-31T11:51:54;1.50;;;1.50;;
10096;SDS011;5087;42.662;23.466;2023-03-31T11:54:24;1.60;;;1.60;;
10096;SDS011;5087;42.662;23.466;2023-03-31T11:57:05;1.60;;;1.60;;
10096;SDS011;5087;42.662;23.466;2023-03-31T11:59:38;1.50;;;1.50;;
10096;SDS011;5087;42.662;23.466;2023-03-31T12:02:20;1.40;;;1.40;;
10096;SDS011;5087;42.662;23.466;2023-03-31T12:04:57;1.50;;;1.50;;
10096;SDS011;5087;42.662;23.466;2023-03-31T12:07:28;1.70;;;1.70;;
10096;SDS011;5087;42.662;23.466;2023-03-31T12:09:58;1.50;;;1.50;;
10096;SDS011;5087;42.662;23.466;2023-03-31T12:12:34;1.60;;;1.60;;
10096;SDS011;5087;42.662;23.466;2023-03-31T12:18:08;1.50;;;1.50;;
10096;SDS011;5087;42.662;23.466;2023-03-31T12:20:51;1.53;;;1.53;;
10096;SDS011;5087;42.662;23.466;2023-03-31T12:23:23;1.50;;;1.50;;
10096;SDS011;5087;42.662;23.466;2023-03-31T12:25:55;1.40;;;1.40;;
10096;SDS011;5087;42.662;23.466;2023-03-31T12:28:41;1.40;;;1.40;;
10096;SDS011;5087;42.662;23.466;2023-03-31T12:31:16;1.40;;;1.40;;
10096;SDS011;5087;42.662;23.466;2023-03-31T12:33:51;1.50;;;1.50;;
10096;SDS011;5087;42.662;23.466;2023-03-31T12:36:25;1.40;;;1.40;;
10096;SDS011;5087;42.662;23.466;2023-03-31T12:39:07;1.40;;;1.40;;
10096;SDS011;5087;42.662;23.466;2023-03-31T12:41:56;1.40;;;1.40;;
10096;SDS011;5087;42.662;23.466;2023-03-31T12:44:36;1.40;;;1.40;;
10096;SDS011;5087;42.662;23.466;2023-03-31T12:47:32;1.50;;;1.50;;
10096;SDS011;5087;42.662;23.466;2023-03-31T12:50:21;1.40;;;1.40;;
10096;SDS011;5087;42.662;23.466;2023-03-31T12:53:00;1.60;;;1.60;;
10096;SDS011;5087;42.662;23.466;2023-03-31T12:55:39;1.50;;;1.50;;
10096;SDS011;5087;42.662;23.466;2023-03-31T13:01:09;1.60;;;1.60;;
10096;SDS011;5087;42.662;23.466;2023-03-31T13:03:43;1.40;;;1.40;;
10096;SDS011;5087;42.662;23.466;2023-03-31T13:06:53;1.50;;;1.50;;
10096;SDS011;5087;42.662;23.466;2023-03-31T13:09:45;1.40;;;1.40;;
10096;SDS011;5087;42.662;23.466;2023-03-31T13:12:19;1.50;;;1.50;;
10096;SDS011;5087;42.662;23.466;2023-03-31T13:14:48;1.50;;;1.50;;
10096;SDS011;5087;42.662;23.466;2023-03-31T13:17:28;1.43;;;1.43;;
10096;SDS011;5087;42.662;23.466;2023-03-31T13:22:47;1.50;;;1.50;;
10096;SDS011;5087;42.662;23.466;2023-03-31T13:28:17;1.40;;;1.40;;
10096;SDS011;5087;42.662;23.466;2023-03-31T13:30:59;1.40;;;1.40;;
10096;SDS011;5087;42.662;23.466;2023-03-31T13:33:41;1.73;;;1.73;;
10096;SDS011;5087;42.662;23.466;2023-03-31T13:39:15;1.40;;;1.40;;
10096;SDS011;5087;42.662;23.466;2023-03-31T13:42:01;1.30;;;1.30;;
10096;SDS011;5087;42.662;23.466;2023-03-31T13:44:54;1.60;;;1.60;;
10096;SDS011;5087;42.662;23.466;2023-03-31T13:47:54;1.40;;;1.40;;
10096;SDS011;5087;42.662;23.466;2023-03-31T13:50:54;1.30;;;1.30;;
10096;SDS011;5087;42.662;23.466;2023-03-31T13:53:45;1.30;;;1.30;;
10096;SDS011;5087;42.662;23.466;2023-03-31T14:02:56;1.40;;;1.40;;
10096;SDS011;5087;42.662;23.466;2023-03-31T14:05:43;1.40;;;1.40;;
10096;SDS011;5087;42.662;23.466;2023-03-31T14:08:13;1.50;;;1.50;;
10096;SDS011;5087;42.662;23.466;2023-03-31T14:10:46;1.60;;;1.60;;
10096;SDS011;5087;42.662;23.466;2023-03-31T14:13:18;1.40;;;1.40;;
10096;SDS011;5087;42.662;23.466;2023-03-31T14:15:51;1.50;;;1.50;;
10096;SDS011;5087;42.662;23.466;2023-03-31T14:18:23;1.60;;;1.60;;
10096;SDS011;5087;42.662;23.466;2023-03-31T14:20:55;1.40;;;1.40;;
10096;SDS011;5087;42.662;23.466;2023-03-31T14:23:35;1.40;;;1.40;;
10096;SDS011;5087;42.662;23.466;2023-03-31T14:26:16;1.40;;;1.40;;
10096;SDS011;5087;42.662;23.466;2023-03-31T14:28:59;1.40;;;1.40;;
10096;SDS011;5087;42.662;23.466;2023-03-31T14:31:40;1.30;;;1.30;;
10096;SDS011;5087;42.662;23.466;2023-03-31T14:37:04;1.40;;;1.40;;
10096;SDS011;5087;42.662;23.466;2023-03-31T14:39:35;1.40;;;1.40;;
10096;SDS011;5087;42.662;23.466;2023-03-31T14:42:09;1.67;;;1.67;;
10096;SDS011;5087;42.662;23.466;2023-03-31T14:44:40;1.40;;;1.40;;
10096;SDS011;5087;42.662;23.466;2023-03-31T14:47:12;1.40;;;1.40;;
10096;SDS011;5087;42.662;23.466;2023-03-31T14:49:41;1.40;;;1.40;;
10096;SDS011;5087;42.662;23.466;2023-03-31T14:52:13;1.30;;;1.30;;
10096;SDS011;5087;42.662;23.466;2023-03-31T14:54:43;1.37;;;1.37;;
10096;SDS011;5087;42.662;23.466;2023-03-31T14:57:12;1.50;;;1.50;;
10096;SDS011;5087;42.662;23.466;2023-03-31T14:59:45;1.50;;;1.50;;
10096;SDS011;5087;42.662;23.466;2023-03-31T15:02:16;1.40;;;1.40;;
10096;SDS011;5087;42.662;23.466;2023-03-31T15:04:46;1.30;;;1.30;;
10096;SDS011;5087;42.662;23.466;2023-03-31T15:07:16;1.30;;;1.30;;
10096;SDS011;5087;42.662;23.466;2023-03-31T15:09:44;1.30;;;1.30;;
10096;SDS011;5087;42.662;23.466;2023-03-31T15:12:15;1.77;;;1.77;;
10096;SDS011;5087;42.662;23.466;2023-03-31T15:14:47;1.20;;;1.20;;
10096;SDS011;5087;42.662;23.466;2023-03-31T15:17:17;1.10;;;1.10;;
10096;SDS011;5087;42.662;23.466;2023-03-31T15:19:45;1.20;;;1.20;;
10096;SDS011;5087;42.662;23.466;2023-03-31T15:22:13;1.20;;;1.20;;
10096;SDS011;5087;42.662;23.466;2023-03-31T15:24:43;1.20;;;1.20;;
10096;SDS011;5087;42.662;23.466;2023-03-31T15:27:12;1.40;;;1.40;;
10096;SDS011;5087;42.662;23.466;2023-03-31T15:29:47;1.30;;;1.30;;
10096;SDS011;5087;42.662;23.466;2023-03-31T15:32:19;1.30;;;1.30;;
10096;SDS011;5087;42.662;23.466;2023-03-31T15:34:50;1.30;;;1.30;;
10096;SDS011;5087;42.662;23.466;2023-03-31T15:37:20;1.20;;;1.20;;
10096;SDS011;5087;42.662;23.466;2023-03-31T15:39:53;1.33;;;1.33;;
10096;SDS011;5087;42.662;23.466;2023-03-31T15:42:23;1.60;;;1.60;;
10096;SDS011;5087;42.662;23.466;2023-03-31T15:44:54;1.20;;;1.20;;
10096;SDS011;5087;42.662;23.466;2023-03-31T15:47:29;2.20;;;1.50;;
10096;SDS011;5087;42.662;23.466;2023-03-31T15:50:09;1.30;;;1.30;;
10096;SDS011;5087;42.662;23.466;2023-03-31T15:52:44;1.30;;;1.30;;
10096;SDS011;5087;42.662;23.466;2023-03-31T15:55:24;1.20;;;1.20;;
10096;SDS011;5087;42.662;23.466;2023-03-31T15:57:53;1.30;;;1.30;;
10096;SDS011;5087;42.662;23.466;2023-03-31T16:03:15;1.40;;;1.40;;
10096;SDS011;5087;42.662;23.466;2023-03-31T16:05:49;1.30;;;1.30;;
10096;SDS011;5087;42.662;23.466;2023-03-31T16:08:23;1.20;;;1.20;;
10096;SDS011;5087;42.662;23.466;2023-03-31T16:11:00;1.40;;;1.40;;
10096;SDS011;5087;42.662;23.466;2023-03-31T16:13:31;1.40;;;1.40;;
10096;SDS011;5087;42.662;23.466;2023-03-31T16:16:01;1.40;;;1.40;;
10096;SDS011;5087;42.662;23.466;2023-03-31T16:18:34;1.20;;;1.20;;